createdAt,value
2017-07-21T00:00:19.893Z,19.32
2017-07-21T00:01:19.895Z,19.39
2017-07-21T00:02:19.989Z,19.39
2017-07-21T00:03:19.888Z,19.34
2017-07-21T00:04:19.894Z,19.44
2017-07-21T00:05:19.980Z,19.39
2017-07-21T00:06:20.033Z,19.41
2017-07-21T00:07:19.578Z,19.37
2017-07-21T00:08:19.877Z,19.41
2017-07-21T00:09:19.982Z,19.38
2017-07-21T00:10:19.875Z,19.41
2017-07-21T00:11:19.878Z,19.37
2017-07-21T00:12:19.874Z,19.32
2017-07-21T00:13:19.870Z,19.38
2017-07-21T00:14:19.564Z,19.34
2017-07-21T00:15:19.867Z,19.32
2017-07-21T00:16:19.658Z,19.37
2017-07-21T00:17:19.866Z,19.22
2017-07-21T00:18:19.860Z,19.39
2017-07-21T00:19:19.859Z,19.22
2017-07-21T00:20:19.552Z,19.38
2017-07-21T00:21:19.966Z,19.41
2017-07-21T00:22:19.958Z,19.34
2017-07-21T00:23:19.851Z,19.26
2017-07-21T00:24:19.997Z,19.29
2017-07-21T00:25:19.850Z,19.37
2017-07-21T00:26:19.850Z,19.32
2017-07-21T00:27:19.845Z,19.35
2017-07-21T00:28:19.846Z,19.41
2017-07-21T00:29:19.845Z,19.44
2017-07-21T00:30:19.841Z,19.37
2017-07-21T00:31:19.842Z,19.37
2017-07-21T00:32:19.837Z,19.34
2017-07-21T00:33:19.843Z,19.27
2017-07-21T00:34:19.834Z,19.26
2017-07-21T00:35:19.828Z,19.26
2017-07-21T00:36:19.832Z,19.39
2017-07-21T00:37:19.849Z,19.35
2017-07-21T00:38:19.827Z,19.35
2017-07-21T00:39:20.009Z,19.35
2017-07-21T00:40:19.820Z,19.41
2017-07-21T00:41:19.823Z,19.39
2017-07-21T00:42:19.822Z,19.41
2017-07-21T00:43:19.817Z,19.38
2017-07-21T00:44:19.817Z,19.3
2017-07-21T00:45:19.814Z,19.29
2017-07-21T00:46:19.815Z,19.38
2017-07-21T00:47:19.809Z,19.32
2017-07-21T00:48:19.805Z,19.39
2017-07-21T00:49:19.804Z,19.41
2017-07-21T00:50:19.801Z,19.41
2017-07-21T00:51:19.834Z,19.44
2017-07-21T00:52:19.801Z,19.45
2017-07-21T00:53:19.798Z,19.41
2017-07-21T00:54:19.795Z,19.47
2017-07-21T00:55:19.795Z,19.42
2017-07-21T00:56:19.900Z,19.39
2017-07-21T00:57:19.788Z,19.41
2017-07-21T00:58:19.791Z,19.39
2017-07-21T00:59:19.887Z,19.42
2017-07-21T01:00:19.479Z,19.44
2017-07-21T01:01:19.782Z,19.41
2017-07-21T01:02:19.779Z,19.52
2017-07-21T01:03:19.879Z,19.49
2017-07-21T01:04:19.779Z,19.49
2017-07-21T01:05:19.771Z,19.47
2017-07-21T01:06:19.785Z,19.41
2017-07-21T01:07:19.769Z,19.37
2017-07-21T01:08:19.922Z,19.38
2017-07-21T01:09:19.771Z,19.37
2017-07-21T01:10:19.773Z,19.34
2017-07-21T01:11:19.461Z,19.26
2017-07-21T01:12:19.789Z,19.29
2017-07-21T01:13:19.765Z,19.27
2017-07-21T01:14:19.149Z,19.29
2017-07-21T01:15:19.453Z,19.3
2017-07-21T01:16:19.755Z,19.27
2017-07-21T01:17:19.752Z,19.3
2017-07-21T01:18:19.751Z,19.24
2017-07-21T01:19:19.749Z,19.24
2017-07-21T01:20:19.747Z,19.24
2017-07-21T01:21:19.542Z,19.16
2017-07-21T01:22:19.230Z,19.17
2017-07-21T01:23:19.738Z,19.17
2017-07-21T01:24:19.741Z,19.15
2017-07-21T01:25:19.436Z,19.12
2017-07-21T01:26:19.531Z,19.11
2017-07-21T01:27:19.433Z,19.15
2017-07-21T01:28:19.430Z,19.11
2017-07-21T01:29:19.729Z,19.15
2017-07-21T01:30:19.732Z,19.07
2017-07-21T01:31:19.727Z,19.07
2017-07-21T01:32:19.725Z,19.05
2017-07-21T01:33:19.718Z,19
2017-07-21T01:34:19.417Z,19.04
2017-07-21T01:35:19.721Z,18.92
2017-07-21T01:36:19.412Z,18.96
2017-07-21T01:37:19.412Z,18.94
2017-07-21T01:38:19.715Z,18.91
2017-07-21T01:39:19.710Z,18.97
2017-07-21T01:40:19.712Z,18.89
2017-07-21T01:41:19.713Z,18.97
2017-07-21T01:42:19.703Z,18.92
2017-07-21T01:43:19.703Z,18.96
2017-07-21T01:44:19.701Z,18.89
2017-07-21T01:45:19.700Z,18.85
2017-07-21T01:46:19.697Z,18.82
2017-07-21T01:47:19.793Z,18.78
2017-07-21T01:48:19.393Z,18.86
2017-07-21T01:49:19.696Z,18.79
2017-07-21T01:50:19.487Z,18.85
2017-07-21T01:51:19.485Z,18.78
2017-07-21T01:52:19.684Z,18.79
2017-07-21T01:53:19.687Z,18.7
2017-07-21T01:54:19.681Z,18.83
2017-07-21T01:55:19.712Z,18.71
2017-07-21T01:56:19.779Z,18.76
2017-07-21T01:57:19.373Z,18.71
2017-07-21T01:58:19.678Z,18.7
2017-07-21T01:59:19.468Z,18.7
2017-07-21T02:00:19.686Z,18.64
2017-07-21T02:01:19.057Z,18.64
2017-07-21T02:02:19.673Z,18.6
2017-07-21T02:03:19.821Z,18.64
2017-07-21T02:04:19.360Z,18.6
2017-07-21T02:05:19.667Z,18.64
2017-07-21T02:06:19.353Z,18.57
2017-07-21T02:07:19.350Z,18.53
2017-07-21T02:08:19.503Z,18.51
2017-07-21T02:09:19.814Z,18.55
2017-07-21T02:10:19.348Z,18.55
2017-07-21T02:11:19.652Z,18.48
2017-07-21T02:12:19.651Z,18.41
2017-07-21T02:13:19.646Z,18.39
2017-07-21T02:14:19.640Z,18.42
2017-07-21T02:15:19.642Z,18.43
2017-07-21T02:16:19.643Z,18.39
2017-07-21T02:17:19.644Z,18.41
2017-07-21T02:18:19.336Z,18.34
2017-07-21T02:19:19.635Z,18.36
2017-07-21T02:20:19.743Z,18.34
2017-07-21T02:21:19.328Z,18.3
2017-07-21T02:22:19.325Z,18.34
2017-07-21T02:23:19.631Z,18.31
2017-07-21T02:24:19.422Z,18.3
2017-07-21T02:25:19.627Z,18.23
2017-07-21T02:26:19.622Z,18.21
2017-07-21T02:27:19.009Z,18.28
2017-07-21T02:28:19.615Z,18.3
2017-07-21T02:29:19.616Z,18.23
2017-07-21T02:30:19.615Z,18.31
2017-07-21T02:31:19.614Z,18.19
2017-07-21T02:32:19.740Z,18.24
2017-07-21T02:33:19.722Z,18.19
2017-07-21T02:34:19.606Z,18.12
2017-07-21T02:35:19.295Z,18.11
2017-07-21T02:36:19.606Z,18.08
2017-07-21T02:37:19.295Z,18.08
2017-07-21T02:38:19.599Z,18.03
2017-07-21T02:39:19.694Z,18
2017-07-21T02:40:19.594Z,18.03
2017-07-21T02:41:19.596Z,18.02
2017-07-21T02:42:19.594Z,18.11
2017-07-21T02:43:19.591Z,18.11
2017-07-21T02:44:19.587Z,18.05
2017-07-21T02:45:19.281Z,17.95
2017-07-21T02:46:19.582Z,18
2017-07-21T02:47:19.579Z,18.05
2017-07-21T02:48:19.572Z,18.06
2017-07-21T02:49:19.577Z,17.97
2017-07-21T02:50:19.572Z,18.02
2017-07-21T02:51:19.574Z,18.02
2017-07-21T02:52:19.572Z,18.03
2017-07-21T02:53:19.363Z,18.08
2017-07-21T02:54:19.569Z,18.06
2017-07-21T02:55:19.562Z,18.06
2017-07-21T02:56:19.665Z,18.12
2017-07-21T02:57:19.560Z,18.08
2017-07-21T02:58:19.562Z,18.11
2017-07-21T02:59:19.249Z,18.05
2017-07-21T03:00:18.944Z,18.02
2017-07-21T03:01:19.249Z,17.98
2017-07-21T03:02:19.549Z,18.02
2017-07-21T03:03:19.248Z,17.98
2017-07-21T03:04:19.549Z,17.91
2017-07-21T03:05:19.549Z,17.97
2017-07-21T03:06:19.388Z,17.93
2017-07-21T03:07:19.544Z,17.98
2017-07-21T03:08:19.533Z,17.9
2017-07-21T03:09:19.255Z,17.88
2017-07-21T03:10:19.226Z,17.8
2017-07-21T03:11:19.532Z,17.88
2017-07-21T03:12:19.634Z,17.87
2017-07-21T03:13:19.533Z,17.82
2017-07-21T03:14:19.523Z,17.84
2017-07-21T03:15:19.535Z,17.76
2017-07-21T03:16:19.218Z,17.78
2017-07-21T03:17:19.523Z,17.75
2017-07-21T03:18:19.671Z,17.79
2017-07-21T03:19:19.532Z,17.82
2017-07-21T03:20:19.514Z,17.79
2017-07-21T03:21:19.208Z,17.84
2017-07-21T03:22:18.898Z,17.75
2017-07-21T03:23:19.510Z,17.69
2017-07-21T03:24:18.995Z,17.79
2017-07-21T03:25:18.894Z,17.68
2017-07-21T03:26:19.197Z,17.73
2017-07-21T03:27:18.888Z,17.69
2017-07-21T03:28:18.885Z,17.71
2017-07-21T03:29:19.196Z,17.69
2017-07-21T03:30:19.202Z,17.71
2017-07-21T03:31:19.193Z,17.65
2017-07-21T03:32:19.184Z,17.71
2017-07-21T03:33:19.493Z,17.69
2017-07-21T03:34:19.496Z,17.66
2017-07-21T03:35:19.633Z,17.65
2017-07-21T03:36:19.506Z,17.65
2017-07-21T03:37:19.483Z,17.59
2017-07-21T03:38:19.481Z,17.57
2017-07-21T03:39:19.479Z,17.6
2017-07-21T03:40:19.269Z,17.57
2017-07-21T03:41:19.494Z,17.66
2017-07-21T03:42:19.568Z,17.65
2017-07-21T03:43:19.565Z,17.65
2017-07-21T03:44:19.465Z,17.68
2017-07-21T03:45:19.568Z,17.57
2017-07-21T03:46:19.456Z,17.71
2017-07-21T03:47:19.464Z,17.66
2017-07-21T03:48:19.454Z,17.72
2017-07-21T03:49:19.453Z,17.65
2017-07-21T03:50:19.453Z,17.66
2017-07-21T03:51:19.452Z,17.57
2017-07-21T03:52:19.442Z,17.63
2017-07-21T03:53:19.445Z,17.66
2017-07-21T03:54:19.448Z,17.68
2017-07-21T03:55:19.438Z,17.66
2017-07-21T03:56:19.440Z,17.71
2017-07-21T03:57:19.128Z,17.68
2017-07-21T03:58:19.437Z,17.6
2017-07-21T03:59:19.437Z,17.72
2017-07-21T04:00:19.433Z,17.65
2017-07-21T04:01:19.433Z,17.6
2017-07-21T04:02:19.117Z,17.71
2017-07-21T04:03:19.427Z,17.68
2017-07-21T04:04:19.418Z,17.68
2017-07-21T04:05:19.426Z,17.71
2017-07-21T04:06:19.581Z,17.68
2017-07-21T04:07:19.114Z,17.73
2017-07-21T04:08:19.408Z,17.71
2017-07-21T04:09:19.410Z,17.65
2017-07-21T04:10:19.412Z,17.59
2017-07-21T04:11:19.407Z,17.68
2017-07-21T04:12:19.406Z,17.68
2017-07-21T04:13:19.411Z,17.72
2017-07-21T04:14:19.504Z,17.69
2017-07-21T04:15:19.402Z,17.73
2017-07-21T04:16:19.396Z,17.72
2017-07-21T04:17:19.399Z,17.71
2017-07-21T04:18:19.394Z,17.71
2017-07-21T04:19:19.495Z,17.72
2017-07-21T04:20:19.391Z,17.82
2017-07-21T04:21:19.390Z,17.75
2017-07-21T04:22:19.484Z,17.76
2017-07-21T04:23:19.384Z,17.82
2017-07-21T04:24:19.382Z,17.78
2017-07-21T04:25:19.475Z,17.84
2017-07-21T04:26:19.376Z,17.84
2017-07-21T04:27:19.376Z,17.88
2017-07-21T04:28:19.371Z,17.93
2017-07-21T04:29:19.368Z,18
2017-07-21T04:30:19.373Z,18.03
2017-07-21T04:31:19.363Z,18.02
2017-07-21T04:32:19.363Z,17.97
2017-07-21T04:33:19.363Z,18.05
2017-07-21T04:34:19.363Z,18.09
2017-07-21T04:35:19.358Z,18.24
2017-07-21T04:36:19.605Z,18.45
2017-07-21T04:37:19.355Z,18.71
2017-07-21T04:38:19.350Z,18.92
2017-07-21T04:39:19.352Z,19.34
2017-07-21T04:40:19.049Z,19.55
2017-07-21T04:41:19.040Z,19.78
2017-07-21T04:42:19.347Z,20.14
2017-07-21T04:43:19.341Z,20.29
2017-07-21T04:44:19.438Z,20.64
2017-07-21T04:45:19.337Z,20.73
2017-07-21T04:46:19.335Z,21.05
2017-07-21T04:47:19.338Z,21.19
2017-07-21T04:48:19.334Z,21.4
2017-07-21T04:49:19.334Z,21.6
2017-07-21T04:50:19.424Z,21.75
2017-07-21T04:51:19.335Z,21.89
2017-07-21T04:52:19.124Z,22.04
2017-07-21T04:53:19.424Z,22.22
2017-07-21T04:54:19.324Z,22.33
2017-07-21T04:55:19.320Z,22.52
2017-07-21T04:56:19.324Z,22.7
2017-07-21T04:57:19.111Z,22.78
2017-07-21T04:58:19.161Z,22.86
2017-07-21T04:59:19.315Z,23.04
2017-07-21T05:00:19.012Z,23.23
2017-07-21T05:01:19.413Z,23.33
2017-07-21T05:02:19.004Z,23.45
2017-07-21T05:03:19.409Z,23.56
2017-07-21T05:04:19.311Z,23.71
2017-07-21T05:05:19.307Z,23.94
2017-07-21T05:06:18.996Z,24.14
2017-07-21T05:07:19.308Z,24.41
2017-07-21T05:08:19.456Z,24.51
2017-07-21T05:09:19.303Z,24.66
2017-07-21T05:10:19.301Z,24.82
2017-07-21T05:11:19.297Z,24.88
2017-07-21T05:12:19.293Z,25
2017-07-21T05:13:19.297Z,25.14
2017-07-21T05:14:19.295Z,25.34
2017-07-21T05:15:19.296Z,25.4
2017-07-21T05:16:19.296Z,25.56
2017-07-21T05:17:19.294Z,25.73
2017-07-21T05:18:19.388Z,25.78
2017-07-21T05:19:19.292Z,25.95
2017-07-21T05:20:19.289Z,26.1
2017-07-21T05:21:19.313Z,26.29
2017-07-21T05:22:18.979Z,26.37
2017-07-21T05:23:19.283Z,26.31
2017-07-21T05:24:19.286Z,26.56
2017-07-21T05:25:19.132Z,26.66
2017-07-21T05:26:19.284Z,26.76
2017-07-21T05:27:18.974Z,26.81
2017-07-21T05:28:19.284Z,26.97
2017-07-21T05:29:19.379Z,27.04
2017-07-21T05:30:19.276Z,27.23
2017-07-21T05:31:19.072Z,27.33
2017-07-21T05:32:19.389Z,27.37
2017-07-21T05:33:18.973Z,27.57
2017-07-21T05:34:19.283Z,27.71
2017-07-21T05:35:19.281Z,27.76
2017-07-21T05:36:19.278Z,27.78
2017-07-21T05:37:18.973Z,27.93
2017-07-21T05:38:19.281Z,28.04
2017-07-21T05:39:19.278Z,28.12
2017-07-21T05:40:18.970Z,28.23
2017-07-21T05:41:18.969Z,28.16
2017-07-21T05:42:18.969Z,28.4
2017-07-21T05:43:19.286Z,28.57
2017-07-21T05:44:19.279Z,28.75
2017-07-21T05:45:19.278Z,28.87
2017-07-21T05:46:19.276Z,29.07
2017-07-21T05:47:19.221Z,29.2
2017-07-21T05:48:19.073Z,29.32
2017-07-21T05:49:19.278Z,29.34
2017-07-21T05:50:18.972Z,29.5
2017-07-21T05:51:19.284Z,29.61
2017-07-21T05:52:18.971Z,29.74
2017-07-21T05:53:19.281Z,29.79
2017-07-21T05:54:19.284Z,29.98
2017-07-21T05:55:19.283Z,29.96
2017-07-21T05:56:19.282Z,30.1
2017-07-21T05:57:18.671Z,30.14
2017-07-21T05:58:19.390Z,30.2
2017-07-21T05:59:19.288Z,30.24
2017-07-21T06:00:19.288Z,30.38
2017-07-21T06:01:19.287Z,30.48
2017-07-21T06:02:18.986Z,30.63
2017-07-21T06:03:19.149Z,30.71
2017-07-21T06:04:19.301Z,30.69
2017-07-21T06:05:19.444Z,30.96
2017-07-21T06:06:19.306Z,31.05
2017-07-21T06:07:19.300Z,31.18
2017-07-21T06:08:19.401Z,31.37
2017-07-21T06:09:19.297Z,31.44
2017-07-21T06:10:19.302Z,31.62
2017-07-21T06:11:19.313Z,31.64
2017-07-21T06:12:19.408Z,31.77
2017-07-21T06:13:19.311Z,31.69
2017-07-21T06:14:19.407Z,31.9
2017-07-21T06:15:19.311Z,32
2017-07-21T06:16:19.318Z,32.11
2017-07-21T06:17:19.317Z,32.22
2017-07-21T06:18:19.323Z,32.45
2017-07-21T06:19:19.322Z,32.57
2017-07-21T06:20:19.325Z,32.63
2017-07-21T06:21:19.328Z,32.78
2017-07-21T06:22:19.332Z,32.88
2017-07-21T06:23:19.434Z,32.91
2017-07-21T06:24:19.349Z,32.98
2017-07-21T06:25:19.336Z,33.05
2017-07-21T06:26:19.344Z,33.05
2017-07-21T06:27:19.345Z,33.31
2017-07-21T06:28:19.449Z,33.4
2017-07-21T06:29:19.355Z,33.55
2017-07-21T06:30:19.351Z,33.47
2017-07-21T06:31:19.356Z,33.54
2017-07-21T06:32:19.364Z,33.58
2017-07-21T06:33:19.362Z,33.66
2017-07-21T06:34:19.368Z,33.91
2017-07-21T06:35:19.391Z,33.87
2017-07-21T06:36:19.070Z,34.03
2017-07-21T06:37:19.382Z,34.14
2017-07-21T06:38:19.074Z,34.26
2017-07-21T06:39:19.397Z,34.37
2017-07-21T06:40:19.086Z,34.48
2017-07-21T06:41:19.394Z,34.63
2017-07-21T06:42:19.410Z,34.75
2017-07-21T06:43:19.094Z,34.76
2017-07-21T06:44:19.408Z,34.79
2017-07-21T06:45:19.403Z,34.86
2017-07-21T06:46:19.410Z,34.78
2017-07-21T06:47:19.410Z,34.86
2017-07-21T06:48:19.416Z,35.15
2017-07-21T06:49:19.424Z,35.18
2017-07-21T06:50:19.122Z,35.3
2017-07-21T06:51:19.425Z,35.34
2017-07-21T06:52:19.444Z,35.25
2017-07-21T06:53:19.436Z,35.3
2017-07-21T06:54:19.438Z,35.27
2017-07-21T06:55:19.442Z,35.39
2017-07-21T06:56:19.598Z,35.41
2017-07-21T06:57:19.486Z,35.69
2017-07-21T06:58:19.457Z,35.78
2017-07-21T06:59:19.456Z,35.87
2017-07-21T07:00:19.457Z,35.78
2017-07-21T07:01:19.462Z,35.87
2017-07-21T07:02:19.466Z,35.9
2017-07-21T07:03:19.473Z,36.13
2017-07-21T07:04:19.474Z,36.35
2017-07-21T07:05:19.483Z,36.55
2017-07-21T07:06:19.492Z,36.76
2017-07-21T07:07:19.489Z,36.85
2017-07-21T07:08:19.202Z,36.97
2017-07-21T07:09:19.217Z,37.11
2017-07-21T07:10:19.608Z,37.18
2017-07-21T07:11:19.195Z,37.34
2017-07-21T07:12:19.508Z,37.41
2017-07-21T07:13:19.513Z,37.31
2017-07-21T07:14:19.313Z,37.36
2017-07-21T07:15:19.528Z,37.47
2017-07-21T07:16:19.223Z,37.53
2017-07-21T07:17:19.222Z,37.48
2017-07-21T07:18:19.527Z,37.44
2017-07-21T07:19:19.538Z,37.29
2017-07-21T07:20:19.534Z,37.18
2017-07-21T07:21:19.538Z,37.04
2017-07-21T07:22:19.542Z,37.04
2017-07-21T07:23:19.555Z,37.14
2017-07-21T07:24:19.554Z,37.22
2017-07-21T07:25:19.254Z,37.37
2017-07-21T07:26:19.563Z,37.43
2017-07-21T07:27:19.564Z,37.4
2017-07-21T07:28:18.964Z,37.43
2017-07-21T07:29:19.570Z,37.23
2017-07-21T07:30:19.669Z,37.21
2017-07-21T07:31:19.574Z,37.31
2017-07-21T07:32:19.327Z,37.37
2017-07-21T07:33:19.283Z,37.48
2017-07-21T07:34:19.582Z,37.56
2017-07-21T07:35:19.589Z,37.23
2017-07-21T07:36:19.432Z,37.23
2017-07-21T07:37:19.284Z,37.19
2017-07-21T07:38:19.689Z,37
2017-07-21T07:39:19.292Z,36.75
2017-07-21T07:40:19.394Z,36.57
2017-07-21T07:41:19.751Z,36.47
2017-07-21T07:42:19.299Z,36.36
2017-07-21T07:43:19.607Z,36.29
2017-07-21T07:44:19.606Z,36.2
2017-07-21T07:45:19.727Z,36.06
2017-07-21T07:46:19.619Z,36.01
2017-07-21T07:47:19.615Z,35.75
2017-07-21T07:48:19.620Z,35.31
2017-07-21T07:49:19.620Z,35.2
2017-07-21T07:50:19.626Z,35.31
2017-07-21T07:51:19.627Z,35.78
2017-07-21T07:52:19.630Z,35.98
2017-07-21T07:53:19.632Z,36.13
2017-07-21T07:54:19.635Z,36.26
2017-07-21T07:55:19.734Z,36.17
2017-07-21T07:56:19.639Z,36.2
2017-07-21T07:57:19.633Z,36.17
2017-07-21T07:58:19.745Z,36.24
2017-07-21T07:59:19.644Z,36.51
2017-07-21T08:00:19.336Z,36.65
2017-07-21T08:01:19.747Z,36.75
2017-07-21T08:02:19.656Z,36.53
2017-07-21T08:03:19.348Z,36.14
2017-07-21T08:04:19.653Z,35.69
2017-07-21T08:05:19.650Z,35.3
2017-07-21T08:06:19.757Z,34.91
2017-07-21T08:07:19.662Z,34.83
2017-07-21T08:08:19.661Z,35.08
2017-07-21T08:09:19.668Z,35.18
2017-07-21T08:10:19.672Z,35.15
2017-07-21T08:11:19.669Z,35.2
2017-07-21T08:12:19.664Z,35.32
2017-07-21T08:13:19.674Z,35.75
2017-07-21T08:14:19.469Z,35.98
2017-07-21T08:15:19.673Z,36.26
2017-07-21T08:16:19.672Z,36.41
2017-07-21T08:17:19.824Z,36.53
2017-07-21T08:18:19.677Z,36.63
2017-07-21T08:19:19.682Z,36.63
2017-07-21T08:20:19.676Z,36.73
2017-07-21T08:21:19.379Z,37
2017-07-21T08:22:19.684Z,36.99
2017-07-21T08:23:19.689Z,36.81
2017-07-21T08:24:19.681Z,36.81
2017-07-21T08:25:19.683Z,36.85
2017-07-21T08:26:19.187Z,36.94
2017-07-21T08:27:19.787Z,37.09
2017-07-21T08:28:19.695Z,37.48
2017-07-21T08:29:19.692Z,37.4
2017-07-21T08:30:19.696Z,36.63
2017-07-21T08:31:19.688Z,36.09
2017-07-21T08:32:19.692Z,35.56
2017-07-21T08:33:19.798Z,35.54
2017-07-21T08:34:19.695Z,35.75
2017-07-21T08:35:19.694Z,36.03
2017-07-21T08:36:19.697Z,36.25
2017-07-21T08:37:19.391Z,36.57
2017-07-21T08:38:19.699Z,36.72
2017-07-21T08:39:19.702Z,37.03
2017-07-21T08:40:19.696Z,37.09
2017-07-21T08:41:19.709Z,36.87
2017-07-21T08:42:19.702Z,36.76
2017-07-21T08:43:19.704Z,36.6
2017-07-21T08:44:19.713Z,36.25
2017-07-21T08:45:19.706Z,35.68
2017-07-21T08:46:19.707Z,35.18
2017-07-21T08:47:19.705Z,34.94
2017-07-21T08:48:19.704Z,34.76
2017-07-21T08:49:19.704Z,34.62
2017-07-21T08:50:19.704Z,34.03
2017-07-21T08:51:19.713Z,33.54
2017-07-21T08:52:19.709Z,32.9
2017-07-21T08:53:19.708Z,32.45
2017-07-21T08:54:19.815Z,32.05
2017-07-21T08:55:19.709Z,31.7
2017-07-21T08:56:19.707Z,31.28
2017-07-21T08:57:19.707Z,30.88
2017-07-21T08:58:19.710Z,30.49
2017-07-21T08:59:19.711Z,30.23
2017-07-21T09:00:19.409Z,30.02
2017-07-21T09:01:19.406Z,29.84
2017-07-21T09:02:19.708Z,29.84
2017-07-21T09:03:19.712Z,29.64
2017-07-21T09:04:19.717Z,29.62
2017-07-21T09:05:19.407Z,29.57
2017-07-21T09:06:19.707Z,29.61
2017-07-21T09:07:19.716Z,29.53
2017-07-21T09:08:19.714Z,29.55
2017-07-21T09:09:19.713Z,29.49
2017-07-21T09:10:19.410Z,29.43
2017-07-21T09:11:19.864Z,29.42
2017-07-21T09:12:19.819Z,29.28
2017-07-21T09:13:19.717Z,29.2
2017-07-21T09:14:19.714Z,29.05
2017-07-21T09:15:19.722Z,29
2017-07-21T09:16:19.508Z,29.03
2017-07-21T09:17:19.406Z,28.94
2017-07-21T09:18:19.714Z,29
2017-07-21T09:19:19.712Z,28.97
2017-07-21T09:20:19.717Z,28.97
2017-07-21T09:21:19.717Z,28.94
2017-07-21T09:22:19.723Z,29
2017-07-21T09:23:19.721Z,29.13
2017-07-21T09:24:19.719Z,29.06
2017-07-21T09:25:19.725Z,28.92
2017-07-21T09:26:19.410Z,28.84
2017-07-21T09:27:19.513Z,29.02
2017-07-21T09:28:19.717Z,29.06
2017-07-21T09:29:19.819Z,29.21
2017-07-21T09:30:19.720Z,29.27
2017-07-21T09:31:19.712Z,29.25
2017-07-21T09:32:19.415Z,29.25
2017-07-21T09:33:19.821Z,29.2
2017-07-21T09:34:19.722Z,29.05
2017-07-21T09:35:19.422Z,29.02
2017-07-21T09:36:19.717Z,29.02
2017-07-21T09:37:19.721Z,28.89
2017-07-21T09:38:19.719Z,28.86
2017-07-21T09:39:19.728Z,28.86
2017-07-21T09:40:19.414Z,28.89
2017-07-21T09:41:19.721Z,28.92
2017-07-21T09:42:19.716Z,28.84
2017-07-21T09:43:19.417Z,28.77
2017-07-21T09:44:19.823Z,28.71
2017-07-21T09:45:19.719Z,28.45
2017-07-21T09:46:19.716Z,28.34
2017-07-21T09:47:19.725Z,28.35
2017-07-21T09:48:19.107Z,28.13
2017-07-21T09:49:19.417Z,28.15
2017-07-21T09:50:19.867Z,28.22
2017-07-21T09:51:19.721Z,28.22
2017-07-21T09:52:19.117Z,28.27
2017-07-21T09:53:19.718Z,28.2
2017-07-21T09:54:19.872Z,28.18
2017-07-21T09:55:19.717Z,28.13
2017-07-21T09:56:19.819Z,28.09
2017-07-21T09:57:19.420Z,28.22
2017-07-21T09:58:19.419Z,28.2
2017-07-21T09:59:19.718Z,28.16
2017-07-21T10:00:19.724Z,28.06
2017-07-21T10:01:19.718Z,28.13
2017-07-21T10:02:19.718Z,28.2
2017-07-21T10:03:19.820Z,28.22
2017-07-21T10:04:19.728Z,28.23
2017-07-21T10:05:19.720Z,28.23
2017-07-21T10:06:19.720Z,28.23
2017-07-21T10:07:19.416Z,28.34
2017-07-21T10:08:19.716Z,28.45
2017-07-21T10:09:19.728Z,28.52
2017-07-21T10:10:19.870Z,28.53
2017-07-21T10:11:19.717Z,28.59
2017-07-21T10:12:19.724Z,28.55
2017-07-21T10:13:19.721Z,28.67
2017-07-21T10:14:19.721Z,28.6
2017-07-21T10:15:19.829Z,28.55
2017-07-21T10:16:19.416Z,28.49
2017-07-21T10:17:19.719Z,28.46
2017-07-21T10:18:19.720Z,28.28
2017-07-21T10:19:19.719Z,28.25
2017-07-21T10:20:19.414Z,28.12
2017-07-21T10:21:19.728Z,28.13
2017-07-21T10:22:19.718Z,28.12
2017-07-21T10:23:19.723Z,28.13
2017-07-21T10:24:19.716Z,28.04
2017-07-21T10:25:19.517Z,27.95
2017-07-21T10:26:19.413Z,28.01
2017-07-21T10:27:19.724Z,28.03
2017-07-21T10:28:19.715Z,28.03
2017-07-21T10:29:19.721Z,28.03
2017-07-21T10:30:19.720Z,28.1
2017-07-21T10:31:19.721Z,28.09
2017-07-21T10:32:19.817Z,28.1
2017-07-21T10:33:19.717Z,28.01
2017-07-21T10:34:19.719Z,28.2
2017-07-21T10:35:19.719Z,28.25
2017-07-21T10:36:19.721Z,28.16
2017-07-21T10:37:19.561Z,28.19
2017-07-21T10:38:19.714Z,28.1
2017-07-21T10:39:19.729Z,27.97
2017-07-21T10:40:19.724Z,28.04
2017-07-21T10:41:19.719Z,28.01
2017-07-21T10:42:19.820Z,27.95
2017-07-21T10:43:19.717Z,28.04
2017-07-21T10:44:19.516Z,28.01
2017-07-21T10:45:19.415Z,28.06
2017-07-21T10:46:19.720Z,28.22
2017-07-21T10:47:19.824Z,28.2
2017-07-21T10:48:19.717Z,28.22
2017-07-21T10:49:19.721Z,28.1
2017-07-21T10:50:19.717Z,28.22
2017-07-21T10:51:19.817Z,28.25
2017-07-21T10:52:19.719Z,28.22
2017-07-21T10:53:19.418Z,28.28
2017-07-21T10:54:19.417Z,28.23
2017-07-21T10:55:19.514Z,28.15
2017-07-21T10:56:19.717Z,28.2
2017-07-21T10:57:19.723Z,28.12
2017-07-21T10:58:19.416Z,28.09
2017-07-21T10:59:19.722Z,28.1
2017-07-21T11:00:19.714Z,28.01
2017-07-21T11:01:19.719Z,28.12
2017-07-21T11:02:19.409Z,28
2017-07-21T11:03:19.717Z,28.01
2017-07-21T11:04:19.718Z,28
2017-07-21T11:05:19.731Z,28.12
2017-07-21T11:06:19.416Z,28.08
2017-07-21T11:07:19.138Z,28.15
2017-07-21T11:08:19.412Z,28.34
2017-07-21T11:09:19.712Z,28.31
2017-07-21T11:10:19.722Z,28.28
2017-07-21T11:11:19.813Z,28.33
2017-07-21T11:12:19.722Z,28.35
2017-07-21T11:13:19.732Z,28.38
2017-07-21T11:14:19.717Z,28.37
2017-07-21T11:15:19.818Z,28.46
2017-07-21T11:16:19.718Z,28.49
2017-07-21T11:17:19.717Z,28.53
2017-07-21T11:18:19.411Z,28.49
2017-07-21T11:19:19.716Z,28.52
2017-07-21T11:20:19.414Z,28.47
2017-07-21T11:21:19.710Z,28.53
2017-07-21T11:22:19.712Z,28.55
2017-07-21T11:23:19.716Z,28.52
2017-07-21T11:24:19.717Z,28.52
2017-07-21T11:25:19.720Z,28.6
2017-07-21T11:26:19.716Z,28.7
2017-07-21T11:27:19.819Z,28.64
2017-07-21T11:28:19.715Z,28.64
2017-07-21T11:29:19.411Z,28.52
2017-07-21T11:30:19.715Z,28.53
2017-07-21T11:31:19.712Z,28.43
2017-07-21T11:32:19.710Z,28.43
2017-07-21T11:33:19.714Z,28.47
2017-07-21T11:34:19.410Z,28.56
2017-07-21T11:35:19.102Z,28.57
2017-07-21T11:36:19.730Z,28.64
2017-07-21T11:37:19.815Z,28.57
2017-07-21T11:38:19.715Z,28.59
2017-07-21T11:39:19.710Z,28.7
2017-07-21T11:40:19.717Z,28.65
2017-07-21T11:41:19.711Z,28.71
2017-07-21T11:42:19.712Z,28.74
2017-07-21T11:43:19.716Z,28.74
2017-07-21T11:44:19.712Z,28.77
2017-07-21T11:45:19.707Z,28.75
2017-07-21T11:46:19.100Z,28.62
2017-07-21T11:47:19.812Z,28.6
2017-07-21T11:48:19.718Z,28.74
2017-07-21T11:49:19.410Z,28.74
2017-07-21T11:50:19.717Z,28.72
2017-07-21T11:51:19.709Z,28.72
2017-07-21T11:52:19.711Z,28.67
2017-07-21T11:53:19.405Z,28.7
2017-07-21T11:54:19.712Z,28.75
2017-07-21T11:55:19.716Z,28.74
2017-07-21T11:56:19.713Z,28.74
2017-07-21T11:57:19.411Z,28.8
2017-07-21T11:58:19.809Z,28.83
2017-07-21T11:59:19.711Z,28.8
2017-07-21T12:00:19.811Z,28.71
2017-07-21T12:01:19.722Z,28.71
2017-07-21T12:02:19.713Z,28.71
2017-07-21T12:03:19.712Z,28.89
2017-07-21T12:04:19.716Z,28.97
2017-07-21T12:05:19.707Z,29
2017-07-21T12:06:19.708Z,28.87
2017-07-21T12:07:19.721Z,28.84
2017-07-21T12:08:19.807Z,28.89
2017-07-21T12:09:19.706Z,28.8
2017-07-21T12:10:19.707Z,28.87
2017-07-21T12:11:19.402Z,28.77
2017-07-21T12:12:19.710Z,28.8
2017-07-21T12:13:19.710Z,28.82
2017-07-21T12:14:19.715Z,28.82
2017-07-21T12:15:19.708Z,28.96
2017-07-21T12:16:19.706Z,29
2017-07-21T12:17:19.862Z,29.06
2017-07-21T12:18:19.404Z,29.15
2017-07-21T12:19:19.706Z,29.18
2017-07-21T12:20:19.198Z,29.22
2017-07-21T12:21:19.712Z,29.22
2017-07-21T12:22:19.707Z,29.25
2017-07-21T12:23:19.723Z,29.28
2017-07-21T12:24:19.402Z,29.28
2017-07-21T12:25:19.712Z,29.24
2017-07-21T12:26:19.714Z,29.28
2017-07-21T12:27:19.709Z,29.22
2017-07-21T12:28:19.709Z,29.24
2017-07-21T12:29:19.095Z,29.27
2017-07-21T12:30:19.711Z,29.24
2017-07-21T12:31:19.711Z,29.31
2017-07-21T12:32:19.709Z,29.25
2017-07-21T12:33:19.708Z,29.28
2017-07-21T12:34:19.553Z,29.28
2017-07-21T12:35:19.403Z,29.28
2017-07-21T12:36:19.708Z,29.31
2017-07-21T12:37:19.709Z,29.37
2017-07-21T12:38:19.713Z,29.4
2017-07-21T12:39:19.712Z,29.39
2017-07-21T12:40:19.103Z,29.52
2017-07-21T12:41:19.711Z,29.57
2017-07-21T12:42:19.713Z,29.67
2017-07-21T12:43:19.712Z,29.76
2017-07-21T12:44:19.708Z,29.83
2017-07-21T12:45:19.413Z,29.84
2017-07-21T12:46:19.712Z,29.9
2017-07-21T12:47:19.102Z,29.86
2017-07-21T12:48:19.819Z,29.67
2017-07-21T12:49:19.408Z,29.68
2017-07-21T12:50:19.720Z,29.81
2017-07-21T12:51:19.411Z,29.86
2017-07-21T12:52:19.715Z,29.87
2017-07-21T12:53:19.716Z,29.84
2017-07-21T12:54:19.508Z,29.81
2017-07-21T12:55:19.825Z,29.74
2017-07-21T12:56:19.106Z,29.74